<?xml version="1.0" encoding="UTF-8" standalone="no" ?>
<gpx xmlns="http://www.topografix.com/GPX/1/1" xmlns:xsi="http://www.w3.org/2001/XMLSchema-instance" xsi:schemaLocation="http://www.topografix.com/GPX/1/1 http://www.topografix.com/GPX/1/1/gpx.xsd" version="1.1" creator="VisuGPX - https://www.visugpx.com">
  <metadata>
    <name>MADERE - PEDESTRE - SANTANA - Le pico Ruivo depuis Achada do Teixeira</name>
    <desc><![CDATA[Courte mais très belle avec un superbe panorama]]></desc>
  </metadata>
  <wpt lat="32.75879" lon="-16.94261">
    <ele>1867.472412</ele>
    <name><![CDATA[014]]></name>
    <desc><![CDATA[05-MAI-13 22:18:20]]></desc>
  </wpt>
  <wpt lat="32.76485" lon="-16.92108">
    <ele>1594.940918</ele>
    <name><![CDATA[015]]></name>
    <desc><![CDATA[05-MAI-13 23:21:59]]></desc>
  </wpt>
  <trk>
    <name><![CDATA[ACTIVE LOG 038]]></name>
    <trkseg>
      <trkpt lat="32.76478" lon="-16.9207">
        <ele>1593.041748</ele>
        <time>2013-05-06T08:25:36Z</time>
      </trkpt>
      <trkpt lat="32.76478" lon="-16.9207">
        <ele>1593.041748</ele>
        <time>2013-05-06T08:25:37Z</time>
      </trkpt>
      <trkpt lat="32.76478" lon="-16.9207">
        <ele>1592.561279</ele>
        <time>2013-05-06T08:25:38Z</time>
      </trkpt>
      <trkpt lat="32.76478" lon="-16.92069">
        <ele>1591.599854</ele>
        <time>2013-05-06T08:25:45Z</time>
      </trkpt>
      <trkpt lat="32.76479" lon="-16.92071">
        <ele>1592.080566</ele>
        <time>2013-05-06T08:26:03Z</time>
      </trkpt>
      <trkpt lat="32.76478" lon="-16.92073">
        <ele>1592.080566</ele>
        <time>2013-05-06T08:26:06Z</time>
      </trkpt>
      <trkpt lat="32.76478" lon="-16.92075">
        <ele>1591.599854</ele>
        <time>2013-05-06T08:26:10Z</time>
      </trkpt>
      <trkpt lat="32.76479" lon="-16.92073">
        <ele>1592.080566</ele>
        <time>2013-05-06T08:26:14Z</time>
      </trkpt>
      <trkpt lat="32.76483" lon="-16.92101">
        <ele>1591.599854</ele>
        <time>2013-05-06T08:26:36Z</time>
      </trkpt>
      <trkpt lat="32.76487" lon="-16.92109">
        <ele>1591.119141</ele>
        <time>2013-05-06T08:26:50Z</time>
      </trkpt>
      <trkpt lat="32.76492" lon="-16.92111">
        <ele>1591.119141</ele>
        <time>2013-05-06T08:27:05Z</time>
      </trkpt>
      <trkpt lat="32.76494" lon="-16.92111">
        <ele>1591.599854</ele>
        <time>2013-05-06T08:27:18Z</time>
      </trkpt>
      <trkpt lat="32.76493" lon="-16.92111">
        <ele>1592.080566</ele>
        <time>2013-05-06T08:27:23Z</time>
      </trkpt>
      <trkpt lat="32.76479" lon="-16.92112">
        <ele>1594.003174</ele>
        <time>2013-05-06T08:27:36Z</time>
      </trkpt>
      <trkpt lat="32.76476" lon="-16.92114">
        <ele>1594.003174</ele>
        <time>2013-05-06T08:27:40Z</time>
      </trkpt>
      <trkpt lat="32.7647" lon="-16.92124">
        <ele>1588.235352</ele>
        <time>2013-05-06T08:27:50Z</time>
      </trkpt>
      <trkpt lat="32.76469" lon="-16.92125">
        <ele>1593.522461</ele>
        <time>2013-05-06T08:27:51Z</time>
      </trkpt>
      <trkpt lat="32.76467" lon="-16.92128">
        <ele>1594.964355</ele>
        <time>2013-05-06T08:27:53Z</time>
      </trkpt>
      <trkpt lat="32.76458" lon="-16.92137">
        <ele>1595.925781</ele>
        <time>2013-05-06T08:28:03Z</time>
      </trkpt>
      <trkpt lat="32.76454" lon="-16.92143">
        <ele>1596.406738</ele>
        <time>2013-05-06T08:28:09Z</time>
      </trkpt>
      <trkpt lat="32.76439" lon="-16.92162">
        <ele>1599.77124</ele>
        <time>2013-05-06T08:28:28Z</time>
      </trkpt>
      <trkpt lat="32.76429" lon="-16.92176">
        <ele>1603.135742</ele>
        <time>2013-05-06T08:28:44Z</time>
      </trkpt>
      <trkpt lat="32.76428" lon="-16.92179">
        <ele>1603.616455</ele>
        <time>2013-05-06T08:28:47Z</time>
      </trkpt>
      <trkpt lat="32.76425" lon="-16.92199">
        <ele>1606.980957</ele>
        <time>2013-05-06T08:29:06Z</time>
      </trkpt>
      <trkpt lat="32.76424" lon="-16.92202">
        <ele>1607.46167</ele>
        <time>2013-05-06T08:29:32Z</time>
      </trkpt>
      <trkpt lat="32.76418" lon="-16.92224">
        <ele>1611.306885</ele>
        <time>2013-05-06T08:29:49Z</time>
      </trkpt>
      <trkpt lat="32.76408" lon="-16.9224">
        <ele>1614.190918</ele>
        <time>2013-05-06T08:30:04Z</time>
      </trkpt>
      <trkpt lat="32.76402" lon="-16.92253">
        <ele>1617.074951</ele>
        <time>2013-05-06T08:30:17Z</time>
      </trkpt>
      <trkpt lat="32.76396" lon="-16.92272">
        <ele>1619.95874</ele>
        <time>2013-05-06T08:30:37Z</time>
      </trkpt>
      <trkpt lat="32.76395" lon="-16.92287">
        <ele>1622.362061</ele>
        <time>2013-05-06T08:30:55Z</time>
      </trkpt>
      <trkpt lat="32.76393" lon="-16.92289">
        <ele>1624.284668</ele>
        <time>2013-05-06T08:31:08Z</time>
      </trkpt>
      <trkpt lat="32.76396" lon="-16.92303">
        <ele>1623.323486</ele>
        <time>2013-05-06T08:32:30Z</time>
      </trkpt>
      <trkpt lat="32.76395" lon="-16.92324">
        <ele>1625.24585</ele>
        <time>2013-05-06T08:32:48Z</time>
      </trkpt>
      <trkpt lat="32.76396" lon="-16.92344">
        <ele>1626.687988</ele>
        <time>2013-05-06T08:33:04Z</time>
      </trkpt>
      <trkpt lat="32.76397" lon="-16.92356">
        <ele>1627.64917</ele>
        <time>2013-05-06T08:33:13Z</time>
      </trkpt>
      <trkpt lat="32.76402" lon="-16.92379">
        <ele>1629.091309</ele>
        <time>2013-05-06T08:33:30Z</time>
      </trkpt>
      <trkpt lat="32.76413" lon="-16.92404">
        <ele>1629.572021</ele>
        <time>2013-05-06T08:33:49Z</time>
      </trkpt>
      <trkpt lat="32.76425" lon="-16.92421">
        <ele>1631.01416</ele>
        <time>2013-05-06T08:34:09Z</time>
      </trkpt>
      <trkpt lat="32.76429" lon="-16.92426">
        <ele>1631.975342</ele>
        <time>2013-05-06T08:34:25Z</time>
      </trkpt>
      <trkpt lat="32.76442" lon="-16.92439">
        <ele>1635.820557</ele>
        <time>2013-05-06T08:34:40Z</time>
      </trkpt>
      <trkpt lat="32.76443" lon="-16.92439">
        <ele>1635.339844</ele>
        <time>2013-05-06T08:34:41Z</time>
      </trkpt>
      <trkpt lat="32.76453" lon="-16.92451">
        <ele>1639.665771</ele>
        <time>2013-05-06T08:34:58Z</time>
      </trkpt>
      <trkpt lat="32.76453" lon="-16.92452">
        <ele>1639.185059</ele>
        <time>2013-05-06T08:34:59Z</time>
      </trkpt>
      <trkpt lat="32.7646" lon="-16.92468">
        <ele>1642.549805</ele>
        <time>2013-05-06T08:35:16Z</time>
      </trkpt>
      <trkpt lat="32.76466" lon="-16.92487">
        <ele>1645.914551</ele>
        <time>2013-05-06T08:35:33Z</time>
      </trkpt>
      <trkpt lat="32.7647" lon="-16.92508">
        <ele>1648.317627</ele>
        <time>2013-05-06T08:35:53Z</time>
      </trkpt>
      <trkpt lat="32.76467" lon="-16.9252">
        <ele>1650.720947</ele>
        <time>2013-05-06T08:36:10Z</time>
      </trkpt>
      <trkpt lat="32.76463" lon="-16.92515">
        <ele>1653.124268</ele>
        <time>2013-05-06T08:36:17Z</time>
      </trkpt>
      <trkpt lat="32.76461" lon="-16.92513">
        <ele>1654.085693</ele>
        <time>2013-05-06T08:36:20Z</time>
      </trkpt>
      <trkpt lat="32.76455" lon="-16.92508">
        <ele>1656.969482</ele>
        <time>2013-05-06T08:36:31Z</time>
      </trkpt>
      <trkpt lat="32.7645" lon="-16.92518">
        <ele>1660.334229</ele>
        <time>2013-05-06T08:36:46Z</time>
      </trkpt>
      <trkpt lat="32.76444" lon="-16.92529">
        <ele>1662.256836</ele>
        <time>2013-05-06T08:36:58Z</time>
      </trkpt>
      <trkpt lat="32.76435" lon="-16.92549">
        <ele>1664.660156</ele>
        <time>2013-05-06T08:37:19Z</time>
      </trkpt>
      <trkpt lat="32.76427" lon="-16.92565">
        <ele>1667.543945</ele>
        <time>2013-05-06T08:37:35Z</time>
      </trkpt>
      <trkpt lat="32.76426" lon="-16.92569">
        <ele>1668.505371</ele>
        <time>2013-05-06T08:37:39Z</time>
      </trkpt>
      <trkpt lat="32.76425" lon="-16.92571">
        <ele>1669.466797</ele>
        <time>2013-05-06T08:37:41Z</time>
      </trkpt>
      <trkpt lat="32.76419" lon="-16.92583">
        <ele>1672.831299</ele>
        <time>2013-05-06T08:37:55Z</time>
      </trkpt>
      <trkpt lat="32.76409" lon="-16.92602">
        <ele>1675.715088</ele>
        <time>2013-05-06T08:38:14Z</time>
      </trkpt>
      <trkpt lat="32.76403" lon="-16.92612">
        <ele>1676.676758</ele>
        <time>2013-05-06T08:38:30Z</time>
      </trkpt>
      <trkpt lat="32.76393" lon="-16.92626">
        <ele>1677.637939</ele>
        <time>2013-05-06T08:38:50Z</time>
      </trkpt>
      <trkpt lat="32.76379" lon="-16.92642">
        <ele>1679.079834</ele>
        <time>2013-05-06T08:39:06Z</time>
      </trkpt>
      <trkpt lat="32.76365" lon="-16.92668">
        <ele>1679.560547</ele>
        <time>2013-05-06T08:39:29Z</time>
      </trkpt>
      <trkpt lat="32.76356" lon="-16.92696">
        <ele>1680.04126</ele>
        <time>2013-05-06T08:39:51Z</time>
      </trkpt>
      <trkpt lat="32.7635" lon="-16.92724">
        <ele>1680.521973</ele>
        <time>2013-05-06T08:40:12Z</time>
      </trkpt>
      <trkpt lat="32.76345" lon="-16.9275">
        <ele>1682.925049</ele>
        <time>2013-05-06T08:40:32Z</time>
      </trkpt>
      <trkpt lat="32.7634" lon="-16.92765">
        <ele>1685.809082</ele>
        <time>2013-05-06T08:40:47Z</time>
      </trkpt>
      <trkpt lat="32.76335" lon="-16.92777">
        <ele>1686.770264</ele>
        <time>2013-05-06T08:41:00Z</time>
      </trkpt>
      <trkpt lat="32.76331" lon="-16.92784">
        <ele>1685.809082</ele>
        <time>2013-05-06T08:41:19Z</time>
      </trkpt>
      <trkpt lat="32.76322" lon="-16.9281">
        <ele>1688.693115</ele>
        <time>2013-05-06T08:41:41Z</time>
      </trkpt>
      <trkpt lat="32.7632" lon="-16.92824">
        <ele>1692.538574</ele>
        <time>2013-05-06T08:41:53Z</time>
      </trkpt>
      <trkpt lat="32.7632" lon="-16.92825">
        <ele>1692.538574</ele>
        <time>2013-05-06T08:41:54Z</time>
      </trkpt>
      <trkpt lat="32.7632" lon="-16.9285">
        <ele>1693.499756</ele>
        <time>2013-05-06T08:42:13Z</time>
      </trkpt>
      <trkpt lat="32.76323" lon="-16.92876">
        <ele>1691.576904</ele>
        <time>2013-05-06T08:42:34Z</time>
      </trkpt>
      <trkpt lat="32.76323" lon="-16.92879">
        <ele>1691.096191</ele>
        <time>2013-05-06T08:42:36Z</time>
      </trkpt>
      <trkpt lat="32.76332" lon="-16.92907">
        <ele>1688.212402</ele>
        <time>2013-05-06T08:42:58Z</time>
      </trkpt>
      <trkpt lat="32.76339" lon="-16.92939">
        <ele>1690.615479</ele>
        <time>2013-05-06T08:43:22Z</time>
      </trkpt>
      <trkpt lat="32.76341" lon="-16.92947">
        <ele>1692.538574</ele>
        <time>2013-05-06T08:43:29Z</time>
      </trkpt>
      <trkpt lat="32.76346" lon="-16.92967">
        <ele>1694.460938</ele>
        <time>2013-05-06T08:43:48Z</time>
      </trkpt>
      <trkpt lat="32.76353" lon="-16.92992">
        <ele>1697.825684</ele>
        <time>2013-05-06T08:44:10Z</time>
      </trkpt>
      <trkpt lat="32.76362" lon="-16.9301">
        <ele>1697.825684</ele>
        <time>2013-05-06T08:44:26Z</time>
      </trkpt>
      <trkpt lat="32.76377" lon="-16.93027">
        <ele>1696.864258</ele>
        <time>2013-05-06T08:44:46Z</time>
      </trkpt>
      <trkpt lat="32.76381" lon="-16.93037">
        <ele>1694.94165</ele>
        <time>2013-05-06T08:45:02Z</time>
      </trkpt>
      <trkpt lat="32.76376" lon="-16.93065">
        <ele>1693.980469</ele>
        <time>2013-05-06T08:45:23Z</time>
      </trkpt>
      <trkpt lat="32.76381" lon="-16.93091">
        <ele>1694.460938</ele>
        <time>2013-05-06T08:45:42Z</time>
      </trkpt>
      <trkpt lat="32.76385" lon="-16.93124">
        <ele>1696.864258</ele>
        <time>2013-05-06T08:46:05Z</time>
      </trkpt>
      <trkpt lat="32.7638" lon="-16.93144">
        <ele>1698.786865</ele>
        <time>2013-05-06T08:46:27Z</time>
      </trkpt>
      <trkpt lat="32.76373" lon="-16.93153">
        <ele>1698.786865</ele>
        <time>2013-05-06T08:46:44Z</time>
      </trkpt>
      <trkpt lat="32.76364" lon="-16.93162">
        <ele>1699.267578</ele>
        <time>2013-05-06T08:47:01Z</time>
      </trkpt>
      <trkpt lat="32.76344" lon="-16.93184">
        <ele>1699.267578</ele>
        <time>2013-05-06T08:47:23Z</time>
      </trkpt>
      <trkpt lat="32.76335" lon="-16.93211">
        <ele>1701.670898</ele>
        <time>2013-05-06T08:47:44Z</time>
      </trkpt>
      <trkpt lat="32.76323" lon="-16.93232">
        <ele>1704.554688</ele>
        <time>2013-05-06T08:48:04Z</time>
      </trkpt>
      <trkpt lat="32.7632" lon="-16.93243">
        <ele>1705.0354</ele>
        <time>2013-05-06T08:48:20Z</time>
      </trkpt>
      <trkpt lat="32.7632" lon="-16.93244">
        <ele>1705.0354</ele>
        <time>2013-05-06T08:48:21Z</time>
      </trkpt>
      <trkpt lat="32.76316" lon="-16.93262">
        <ele>1708.400146</ele>
        <time>2013-05-06T08:48:38Z</time>
      </trkpt>
      <trkpt lat="32.76313" lon="-16.93273">
        <ele>1710.803467</ele>
        <time>2013-05-06T08:48:53Z</time>
      </trkpt>
      <trkpt lat="32.76311" lon="-16.93284">
        <ele>1712.245361</ele>
        <time>2013-05-06T08:49:09Z</time>
      </trkpt>
      <trkpt lat="32.7631" lon="-16.93299">
        <ele>1715.129395</ele>
        <time>2013-05-06T08:49:25Z</time>
      </trkpt>
      <trkpt lat="32.76309" lon="-16.93307">
        <ele>1717.532471</ele>
        <time>2013-05-06T08:49:34Z</time>
      </trkpt>
      <trkpt lat="32.76309" lon="-16.9331">
        <ele>1718.974609</ele>
        <time>2013-05-06T08:49:38Z</time>
      </trkpt>
      <trkpt lat="32.76295" lon="-16.93331">
        <ele>1721.858398</ele>
        <time>2013-05-06T08:50:00Z</time>
      </trkpt>
      <trkpt lat="32.76276" lon="-16.93344">
        <ele>1721.858398</ele>
        <time>2013-05-06T08:50:22Z</time>
      </trkpt>
      <trkpt lat="32.7626" lon="-16.93355">
        <ele>1720.416504</ele>
        <time>2013-05-06T08:50:42Z</time>
      </trkpt>
      <trkpt lat="32.7625" lon="-16.93364">
        <ele>1723.781006</ele>
        <time>2013-05-06T08:50:53Z</time>
      </trkpt>
      <trkpt lat="32.76225" lon="-16.93382">
        <ele>1724.742676</ele>
        <time>2013-05-06T08:51:17Z</time>
      </trkpt>
      <trkpt lat="32.76208" lon="-16.934">
        <ele>1724.742676</ele>
        <time>2013-05-06T08:51:38Z</time>
      </trkpt>
      <trkpt lat="32.76184" lon="-16.93418">
        <ele>1723.781006</ele>
        <time>2013-05-06T08:52:02Z</time>
      </trkpt>
      <trkpt lat="32.76161" lon="-16.93441">
        <ele>1723.781006</ele>
        <time>2013-05-06T08:52:27Z</time>
      </trkpt>
      <trkpt lat="32.76158" lon="-16.93444">
        <ele>1722.339111</ele>
        <time>2013-05-06T08:52:32Z</time>
      </trkpt>
      <trkpt lat="32.76143" lon="-16.9346">
        <ele>1718.974609</ele>
        <time>2013-05-06T08:52:51Z</time>
      </trkpt>
      <trkpt lat="32.76132" lon="-16.93478">
        <ele>1716.090576</ele>
        <time>2013-05-06T08:53:08Z</time>
      </trkpt>
      <trkpt lat="32.76125" lon="-16.93505">
        <ele>1714.167969</ele>
        <time>2013-05-06T08:53:29Z</time>
      </trkpt>
      <trkpt lat="32.76123" lon="-16.93525">
        <ele>1711.28418</ele>
        <time>2013-05-06T08:53:48Z</time>
      </trkpt>
      <trkpt lat="32.76122" lon="-16.9354">
        <ele>1708.400146</ele>
        <time>2013-05-06T08:54:06Z</time>
      </trkpt>
      <trkpt lat="32.76121" lon="-16.93549">
        <ele>1705.996582</ele>
        <time>2013-05-06T08:54:24Z</time>
      </trkpt>
      <trkpt lat="32.76121" lon="-16.93561">
        <ele>1705.0354</ele>
        <time>2013-05-06T08:54:40Z</time>
      </trkpt>
      <trkpt lat="32.76116" lon="-16.93584">
        <ele>1705.996582</ele>
        <time>2013-05-06T08:54:57Z</time>
      </trkpt>
      <trkpt lat="32.76107" lon="-16.93608">
        <ele>1708.880859</ele>
        <time>2013-05-06T08:55:20Z</time>
      </trkpt>
      <trkpt lat="32.76104" lon="-16.93616">
        <ele>1708.400146</ele>
        <time>2013-05-06T08:55:42Z</time>
      </trkpt>
      <trkpt lat="32.76107" lon="-16.93645">
        <ele>1707.438721</ele>
        <time>2013-05-06T08:56:02Z</time>
      </trkpt>
      <trkpt lat="32.76104" lon="-16.93667">
        <ele>1709.361572</ele>
        <time>2013-05-06T08:56:19Z</time>
      </trkpt>
      <trkpt lat="32.761" lon="-16.93693">
        <ele>1710.803467</ele>
        <time>2013-05-06T08:56:39Z</time>
      </trkpt>
      <trkpt lat="32.76096" lon="-16.93711">
        <ele>1714.167969</ele>
        <time>2013-05-06T08:56:54Z</time>
      </trkpt>
      <trkpt lat="32.76093" lon="-16.93726">
        <ele>1717.052002</ele>
        <time>2013-05-06T08:57:07Z</time>
      </trkpt>
      <trkpt lat="32.7608" lon="-16.93756">
        <ele>1718.974609</ele>
        <time>2013-05-06T08:57:30Z</time>
      </trkpt>
      <trkpt lat="32.76069" lon="-16.93766">
        <ele>1719.455322</ele>
        <time>2013-05-06T08:57:43Z</time>
      </trkpt>
      <trkpt lat="32.76058" lon="-16.93789">
        <ele>1719.455322</ele>
        <time>2013-05-06T08:58:01Z</time>
      </trkpt>
      <trkpt lat="32.76043" lon="-16.93816">
        <ele>1717.532471</ele>
        <time>2013-05-06T08:58:24Z</time>
      </trkpt>
      <trkpt lat="32.76045" lon="-16.93847">
        <ele>1717.532471</ele>
        <time>2013-05-06T08:58:45Z</time>
      </trkpt>
      <trkpt lat="32.76049" lon="-16.93868">
        <ele>1720.416504</ele>
        <time>2013-05-06T08:59:03Z</time>
      </trkpt>
      <trkpt lat="32.76052" lon="-16.93897">
        <ele>1720.897217</ele>
        <time>2013-05-06T08:59:23Z</time>
      </trkpt>
      <trkpt lat="32.76052" lon="-16.93922">
        <ele>1723.781006</ele>
        <time>2013-05-06T08:59:42Z</time>
      </trkpt>
      <trkpt lat="32.76053" lon="-16.93937">
        <ele>1725.703857</ele>
        <time>2013-05-06T08:59:57Z</time>
      </trkpt>
      <trkpt lat="32.76055" lon="-16.93944">
        <ele>1727.145996</ele>
        <time>2013-05-06T09:00:03Z</time>
      </trkpt>
      <trkpt lat="32.76056" lon="-16.93947">
        <ele>1728.587891</ele>
        <time>2013-05-06T09:00:05Z</time>
      </trkpt>
      <trkpt lat="32.76057" lon="-16.93957">
        <ele>1731.952393</ele>
        <time>2013-05-06T09:00:15Z</time>
      </trkpt>
      <trkpt lat="32.76062" lon="-16.9397">
        <ele>1735.316895</ele>
        <time>2013-05-06T09:00:27Z</time>
      </trkpt>
      <trkpt lat="32.76062" lon="-16.93996">
        <ele>1733.875</ele>
        <time>2013-05-06T09:00:49Z</time>
      </trkpt>
      <trkpt lat="32.76053" lon="-16.94021">
        <ele>1735.797607</ele>
        <time>2013-05-06T09:01:08Z</time>
      </trkpt>
      <trkpt lat="32.76049" lon="-16.94032">
        <ele>1737.239502</ele>
        <time>2013-05-06T09:01:18Z</time>
      </trkpt>
      <trkpt lat="32.76038" lon="-16.94044">
        <ele>1739.162109</ele>
        <time>2013-05-06T09:01:33Z</time>
      </trkpt>
      <trkpt lat="32.7603" lon="-16.94056">
        <ele>1742.5271</ele>
        <time>2013-05-06T09:01:46Z</time>
      </trkpt>
      <trkpt lat="32.76029" lon="-16.94059">
        <ele>1743.488281</ele>
        <time>2013-05-06T09:01:50Z</time>
      </trkpt>
      <trkpt lat="32.76028" lon="-16.94062">
        <ele>1744.930176</ele>
        <time>2013-05-06T09:01:53Z</time>
      </trkpt>
      <trkpt lat="32.76026" lon="-16.94065">
        <ele>1746.372314</ele>
        <time>2013-05-06T09:01:56Z</time>
      </trkpt>
      <trkpt lat="32.76023" lon="-16.94074">
        <ele>1749.736816</ele>
        <time>2013-05-06T09:02:06Z</time>
      </trkpt>
      <trkpt lat="32.76022" lon="-16.94075">
        <ele>1749.736816</ele>
        <time>2013-05-06T09:02:07Z</time>
      </trkpt>
      <trkpt lat="32.76014" lon="-16.94089">
        <ele>1752.620605</ele>
        <time>2013-05-06T09:02:24Z</time>
      </trkpt>
      <trkpt lat="32.76012" lon="-16.94099">
        <ele>1753.582031</ele>
        <time>2013-05-06T09:02:36Z</time>
      </trkpt>
      <trkpt lat="32.76023" lon="-16.94116">
        <ele>1757.42749</ele>
        <time>2013-05-06T09:02:56Z</time>
      </trkpt>
      <trkpt lat="32.76027" lon="-16.94126">
        <ele>1760.791992</ele>
        <time>2013-05-06T09:03:10Z</time>
      </trkpt>
      <trkpt lat="32.76026" lon="-16.94126">
        <ele>1760.791992</ele>
        <time>2013-05-06T09:03:11Z</time>
      </trkpt>
      <trkpt lat="32.76016" lon="-16.94132">
        <ele>1764.637207</ele>
        <time>2013-05-06T09:03:24Z</time>
      </trkpt>
      <trkpt lat="32.76017" lon="-16.94135">
        <ele>1765.598633</ele>
        <time>2013-05-06T09:03:29Z</time>
      </trkpt>
      <trkpt lat="32.76023" lon="-16.94145">
        <ele>1769.443848</ele>
        <time>2013-05-06T09:03:43Z</time>
      </trkpt>
      <trkpt lat="32.76024" lon="-16.94145">
        <ele>1768.963135</ele>
        <time>2013-05-06T09:03:44Z</time>
      </trkpt>
      <trkpt lat="32.7603" lon="-16.94145">
        <ele>1769.443848</ele>
        <time>2013-05-06T09:03:49Z</time>
      </trkpt>
      <trkpt lat="32.76029" lon="-16.94148">
        <ele>1771.846924</ele>
        <time>2013-05-06T09:03:58Z</time>
      </trkpt>
      <trkpt lat="32.76029" lon="-16.94149">
        <ele>1771.846924</ele>
        <time>2013-05-06T09:03:59Z</time>
      </trkpt>
      <trkpt lat="32.76028" lon="-16.94157">
        <ele>1772.327881</ele>
        <time>2013-05-06T09:04:15Z</time>
      </trkpt>
      <trkpt lat="32.76024" lon="-16.94159">
        <ele>1773.769775</ele>
        <time>2013-05-06T09:04:20Z</time>
      </trkpt>
      <trkpt lat="32.76014" lon="-16.94168">
        <ele>1777.134521</ele>
        <time>2013-05-06T09:04:36Z</time>
      </trkpt>
      <trkpt lat="32.76014" lon="-16.94169">
        <ele>1777.134521</ele>
        <time>2013-05-06T09:04:37Z</time>
      </trkpt>
      <trkpt lat="32.76006" lon="-16.94197">
        <ele>1779.056885</ele>
        <time>2013-05-06T09:04:59Z</time>
      </trkpt>
      <trkpt lat="32.76007" lon="-16.94222">
        <ele>1781.940918</ele>
        <time>2013-05-06T09:05:18Z</time>
      </trkpt>
      <trkpt lat="32.76016" lon="-16.9424">
        <ele>1783.382812</ele>
        <time>2013-05-06T09:05:40Z</time>
      </trkpt>
      <trkpt lat="32.76018" lon="-16.94251">
        <ele>1785.30542</ele>
        <time>2013-05-06T09:05:55Z</time>
      </trkpt>
      <trkpt lat="32.76017" lon="-16.94254">
        <ele>1787.228027</ele>
        <time>2013-05-06T09:05:58Z</time>
      </trkpt>
      <trkpt lat="32.76016" lon="-16.94262">
        <ele>1788.67041</ele>
        <time>2013-05-06T09:06:06Z</time>
      </trkpt>
      <trkpt lat="32.76014" lon="-16.94274">
        <ele>1791.554199</ele>
        <time>2013-05-06T09:06:17Z</time>
      </trkpt>
      <trkpt lat="32.7601" lon="-16.94295">
        <ele>1794.918701</ele>
        <time>2013-05-06T09:06:34Z</time>
      </trkpt>
      <trkpt lat="32.76011" lon="-16.94318">
        <ele>1795.880127</ele>
        <time>2013-05-06T09:06:53Z</time>
      </trkpt>
      <trkpt lat="32.76013" lon="-16.94327">
        <ele>1796.36084</ele>
        <time>2013-05-06T09:07:12Z</time>
      </trkpt>
      <trkpt lat="32.76011" lon="-16.94331">
        <ele>1796.841309</ele>
        <time>2013-05-06T09:07:20Z</time>
      </trkpt>
      <trkpt lat="32.76004" lon="-16.94322">
        <ele>1800.686523</ele>
        <time>2013-05-06T09:07:35Z</time>
      </trkpt>
      <trkpt lat="32.76004" lon="-16.94328">
        <ele>1801.167236</ele>
        <time>2013-05-06T09:07:40Z</time>
      </trkpt>
      <trkpt lat="32.76004" lon="-16.94328">
        <ele>1801.167236</ele>
        <time>2013-05-06T09:07:41Z</time>
      </trkpt>
      <trkpt lat="32.75999" lon="-16.94331">
        <ele>1804.051514</ele>
        <time>2013-05-06T09:07:55Z</time>
      </trkpt>
      <trkpt lat="32.75993" lon="-16.94323">
        <ele>1807.416016</ele>
        <time>2013-05-06T09:08:07Z</time>
      </trkpt>
      <trkpt lat="32.7599" lon="-16.94319">
        <ele>1807.896729</ele>
        <time>2013-05-06T09:08:12Z</time>
      </trkpt>
      <trkpt lat="32.75982" lon="-16.94313">
        <ele>1812.222412</ele>
        <time>2013-05-06T09:08:30Z</time>
      </trkpt>
      <trkpt lat="32.75979" lon="-16.94323">
        <ele>1816.54834</ele>
        <time>2013-05-06T09:08:41Z</time>
      </trkpt>
      <trkpt lat="32.75976" lon="-16.94338">
        <ele>1817.509521</ele>
        <time>2013-05-06T09:09:00Z</time>
      </trkpt>
      <trkpt lat="32.7597" lon="-16.94335">
        <ele>1820.393799</ele>
        <time>2013-05-06T09:09:16Z</time>
      </trkpt>
      <trkpt lat="32.75966" lon="-16.94326">
        <ele>1822.797119</ele>
        <time>2013-05-06T09:09:31Z</time>
      </trkpt>
      <trkpt lat="32.75961" lon="-16.94316">
        <ele>1826.161621</ele>
        <time>2013-05-06T09:09:45Z</time>
      </trkpt>
      <trkpt lat="32.75959" lon="-16.94313">
        <ele>1828.564941</ele>
        <time>2013-05-06T09:09:52Z</time>
      </trkpt>
      <trkpt lat="32.75953" lon="-16.94304">
        <ele>1830.487549</ele>
        <time>2013-05-06T09:10:20Z</time>
      </trkpt>
      <trkpt lat="32.75952" lon="-16.94306">
        <ele>1831.929443</ele>
        <time>2013-05-06T09:10:23Z</time>
      </trkpt>
      <trkpt lat="32.75948" lon="-16.94321">
        <ele>1835.774658</ele>
        <time>2013-05-06T09:10:36Z</time>
      </trkpt>
      <trkpt lat="32.75948" lon="-16.94322">
        <ele>1835.774658</ele>
        <time>2013-05-06T09:10:37Z</time>
      </trkpt>
      <trkpt lat="32.75946" lon="-16.94325">
        <ele>1836.736084</ele>
        <time>2013-05-06T09:10:41Z</time>
      </trkpt>
      <trkpt lat="32.75933" lon="-16.94327">
        <ele>1838.178223</ele>
        <time>2013-05-06T09:10:56Z</time>
      </trkpt>
      <trkpt lat="32.75926" lon="-16.9433">
        <ele>1841.062012</ele>
        <time>2013-05-06T09:11:05Z</time>
      </trkpt>
      <trkpt lat="32.75919" lon="-16.94331">
        <ele>1842.984619</ele>
        <time>2013-05-06T09:11:14Z</time>
      </trkpt>
      <trkpt lat="32.7591" lon="-16.94331">
        <ele>1845.868652</ele>
        <time>2013-05-06T09:11:26Z</time>
      </trkpt>
      <trkpt lat="32.75902" lon="-16.94326">
        <ele>1849.713867</ele>
        <time>2013-05-06T09:11:37Z</time>
      </trkpt>
      <trkpt lat="32.75901" lon="-16.94326">
        <ele>1849.713867</ele>
        <time>2013-05-06T09:11:38Z</time>
      </trkpt>
      <trkpt lat="32.75887" lon="-16.9431">
        <ele>1852.117188</ele>
        <time>2013-05-06T09:11:58Z</time>
      </trkpt>
      <trkpt lat="32.75883" lon="-16.94289">
        <ele>1854.520508</ele>
        <time>2013-05-06T09:12:16Z</time>
      </trkpt>
      <trkpt lat="32.75884" lon="-16.94286">
        <ele>1855.962402</ele>
        <time>2013-05-06T09:12:19Z</time>
      </trkpt>
      <trkpt lat="32.75888" lon="-16.94281">
        <ele>1858.846436</ele>
        <time>2013-05-06T09:12:31Z</time>
      </trkpt>
      <trkpt lat="32.75891" lon="-16.94276">
        <ele>1861.730469</ele>
        <time>2013-05-06T09:12:45Z</time>
      </trkpt>
      <trkpt lat="32.75888" lon="-16.94273">
        <ele>1863.652832</ele>
        <time>2013-05-06T09:12:53Z</time>
      </trkpt>
      <trkpt lat="32.75888" lon="-16.94272">
        <ele>1864.133545</ele>
        <time>2013-05-06T09:12:55Z</time>
      </trkpt>
      <trkpt lat="32.75887" lon="-16.9427">
        <ele>1865.094971</ele>
        <time>2013-05-06T09:12:57Z</time>
      </trkpt>
      <trkpt lat="32.75876" lon="-16.94253">
        <ele>1864.133545</ele>
        <time>2013-05-06T09:13:15Z</time>
      </trkpt>
      <trkpt lat="32.75873" lon="-16.94254">
        <ele>1864.133545</ele>
        <time>2013-05-06T09:13:36Z</time>
      </trkpt>
      <trkpt lat="32.75868" lon="-16.94251">
        <ele>1864.133545</ele>
        <time>2013-05-06T09:13:44Z</time>
      </trkpt>
      <trkpt lat="32.75857" lon="-16.94239">
        <ele>1861.730469</ele>
        <time>2013-05-06T09:14:04Z</time>
      </trkpt>
      <trkpt lat="32.75845" lon="-16.94227">
        <ele>1858.846436</ele>
        <time>2013-05-06T09:14:25Z</time>
      </trkpt>
      <trkpt lat="32.7584" lon="-16.94215">
        <ele>1855.962402</ele>
        <time>2013-05-06T09:14:38Z</time>
      </trkpt>
      <trkpt lat="32.75839" lon="-16.94194">
        <ele>1855.001221</ele>
        <time>2013-05-06T09:14:57Z</time>
      </trkpt>
      <trkpt lat="32.75839" lon="-16.94193">
        <ele>1855.001221</ele>
        <time>2013-05-06T09:15:25Z</time>
      </trkpt>
      <trkpt lat="32.75839" lon="-16.94194">
        <ele>1855.481934</ele>
        <time>2013-05-06T09:15:58Z</time>
      </trkpt>
      <trkpt lat="32.75837" lon="-16.94203">
        <ele>1855.962402</ele>
        <time>2013-05-06T09:16:18Z</time>
      </trkpt>
      <trkpt lat="32.75839" lon="-16.94213">
        <ele>1856.923828</ele>
        <time>2013-05-06T09:16:27Z</time>
      </trkpt>
      <trkpt lat="32.75851" lon="-16.9423">
        <ele>1859.327148</ele>
        <time>2013-05-06T09:16:47Z</time>
      </trkpt>
      <trkpt lat="32.75853" lon="-16.94232">
        <ele>1860.28833</ele>
        <time>2013-05-06T09:16:50Z</time>
      </trkpt>
      <trkpt lat="32.7586" lon="-16.94244">
        <ele>1863.652832</ele>
        <time>2013-05-06T09:17:06Z</time>
      </trkpt>
      <trkpt lat="32.75864" lon="-16.94247">
        <ele>1865.094971</ele>
        <time>2013-05-06T09:17:11Z</time>
      </trkpt>
      <trkpt lat="32.75872" lon="-16.94253">
        <ele>1865.575684</ele>
        <time>2013-05-06T09:17:20Z</time>
      </trkpt>
      <trkpt lat="32.75875" lon="-16.94258">
        <ele>1866.536865</ele>
        <time>2013-05-06T09:17:33Z</time>
      </trkpt>
      <trkpt lat="32.75882" lon="-16.94262">
        <ele>1866.536865</ele>
        <time>2013-05-06T09:17:47Z</time>
      </trkpt>
      <trkpt lat="32.75883" lon="-16.94264">
        <ele>1866.536865</ele>
        <time>2013-05-06T09:17:52Z</time>
      </trkpt>
      <trkpt lat="32.75888" lon="-16.94272">
        <ele>1865.575684</ele>
        <time>2013-05-06T09:18:08Z</time>
      </trkpt>
      <trkpt lat="32.75878" lon="-16.94263">
        <ele>1866.536865</ele>
        <time>2013-05-06T09:18:26Z</time>
      </trkpt>
      <trkpt lat="32.75879" lon="-16.94264">
        <ele>1867.017578</ele>
        <time>2013-05-06T09:18:27Z</time>
      </trkpt>
      <trkpt lat="32.75889" lon="-16.94273">
        <ele>1865.575684</ele>
        <time>2013-05-06T09:18:38Z</time>
      </trkpt>
      <trkpt lat="32.7589" lon="-16.94279">
        <ele>1862.210938</ele>
        <time>2013-05-06T09:18:52Z</time>
      </trkpt>
      <trkpt lat="32.75892" lon="-16.94283">
        <ele>1861.730469</ele>
        <time>2013-05-06T09:18:56Z</time>
      </trkpt>
      <trkpt lat="32.75906" lon="-16.94305">
        <ele>1864.614258</ele>
        <time>2013-05-06T09:19:19Z</time>
      </trkpt>
      <trkpt lat="32.75908" lon="-16.9431">
        <ele>1864.614258</ele>
        <time>2013-05-06T09:19:38Z</time>
      </trkpt>
      <trkpt lat="32.75908" lon="-16.9431">
        <ele>1864.133545</ele>
        <time>2013-05-06T09:20:22Z</time>
      </trkpt>
      <trkpt lat="32.75909" lon="-16.94308">
        <ele>1864.133545</ele>
        <time>2013-05-06T09:20:43Z</time>
      </trkpt>
      <trkpt lat="32.75905" lon="-16.94305">
        <ele>1864.614258</ele>
        <time>2013-05-06T09:21:13Z</time>
      </trkpt>
      <trkpt lat="32.75893" lon="-16.94285">
        <ele>1862.210938</ele>
        <time>2013-05-06T09:21:36Z</time>
      </trkpt>
      <trkpt lat="32.75885" lon="-16.94281">
        <ele>1858.846436</ele>
        <time>2013-05-06T09:21:51Z</time>
      </trkpt>
      <trkpt lat="32.75883" lon="-16.9429">
        <ele>1857.404541</ele>
        <time>2013-05-06T09:22:07Z</time>
      </trkpt>
      <trkpt lat="32.75883" lon="-16.94294">
        <ele>1855.481934</ele>
        <time>2013-05-06T09:22:22Z</time>
      </trkpt>
      <trkpt lat="32.75884" lon="-16.94305">
        <ele>1854.040039</ele>
        <time>2013-05-06T09:22:34Z</time>
      </trkpt>
      <trkpt lat="32.75887" lon="-16.9431">
        <ele>1853.559326</ele>
        <time>2013-05-06T09:22:39Z</time>
      </trkpt>
      <trkpt lat="32.75901" lon="-16.94326">
        <ele>1851.155762</ele>
        <time>2013-05-06T09:23:01Z</time>
      </trkpt>
      <trkpt lat="32.75911" lon="-16.94331">
        <ele>1847.79126</ele>
        <time>2013-05-06T09:23:20Z</time>
      </trkpt>
      <trkpt lat="32.75922" lon="-16.9433">
        <ele>1844.907227</ele>
        <time>2013-05-06T09:23:38Z</time>
      </trkpt>
      <trkpt lat="32.75932" lon="-16.94328">
        <ele>1842.023438</ele>
        <time>2013-05-06T09:23:55Z</time>
      </trkpt>
      <trkpt lat="32.75942" lon="-16.94327">
        <ele>1840.10083</ele>
        <time>2013-05-06T09:24:10Z</time>
      </trkpt>
      <trkpt lat="32.75947" lon="-16.94321">
        <ele>1837.216797</ele>
        <time>2013-05-06T09:24:25Z</time>
      </trkpt>
      <trkpt lat="32.75949" lon="-16.94314">
        <ele>1833.852051</ele>
        <time>2013-05-06T09:24:37Z</time>
      </trkpt>
      <trkpt lat="32.75953" lon="-16.94304">
        <ele>1831.929443</ele>
        <time>2013-05-06T09:24:55Z</time>
      </trkpt>
      <trkpt lat="32.75959" lon="-16.94313">
        <ele>1830.006836</ele>
        <time>2013-05-06T09:25:12Z</time>
      </trkpt>
      <trkpt lat="32.75964" lon="-16.9432">
        <ele>1827.603516</ele>
        <time>2013-05-06T09:25:27Z</time>
      </trkpt>
      <trkpt lat="32.75968" lon="-16.9433">
        <ele>1824.719727</ele>
        <time>2013-05-06T09:25:43Z</time>
      </trkpt>
      <trkpt lat="32.7597" lon="-16.94334">
        <ele>1823.758301</ele>
        <time>2013-05-06T09:25:59Z</time>
      </trkpt>
      <trkpt lat="32.75971" lon="-16.94337">
        <ele>1821.835693</ele>
        <time>2013-05-06T09:26:03Z</time>
      </trkpt>
      <trkpt lat="32.75977" lon="-16.94335">
        <ele>1819.432373</ele>
        <time>2013-05-06T09:26:17Z</time>
      </trkpt>
      <trkpt lat="32.75979" lon="-16.94325">
        <ele>1817.509521</ele>
        <time>2013-05-06T09:26:30Z</time>
      </trkpt>
      <trkpt lat="32.75982" lon="-16.94311">
        <ele>1814.625732</ele>
        <time>2013-05-06T09:26:49Z</time>
      </trkpt>
      <trkpt lat="32.75983" lon="-16.94311">
        <ele>1813.664307</ele>
        <time>2013-05-06T09:26:51Z</time>
      </trkpt>
      <trkpt lat="32.7599" lon="-16.94317">
        <ele>1810.299805</ele>
        <time>2013-05-06T09:27:06Z</time>
      </trkpt>
      <trkpt lat="32.75998" lon="-16.94328">
        <ele>1808.85791</ele>
        <time>2013-05-06T09:27:25Z</time>
      </trkpt>
      <trkpt lat="32.76002" lon="-16.94332">
        <ele>1805.493408</ele>
        <time>2013-05-06T09:27:36Z</time>
      </trkpt>
      <trkpt lat="32.76005" lon="-16.94326">
        <ele>1803.570557</ele>
        <time>2013-05-06T09:27:51Z</time>
      </trkpt>
      <trkpt lat="32.76008" lon="-16.94325">
        <ele>1802.609131</ele>
        <time>2013-05-06T09:28:03Z</time>
      </trkpt>
      <trkpt lat="32.7601" lon="-16.94328">
        <ele>1801.167236</ele>
        <time>2013-05-06T09:28:09Z</time>
      </trkpt>
      <trkpt lat="32.76015" lon="-16.94336">
        <ele>1800.686523</ele>
        <time>2013-05-06T09:28:24Z</time>
      </trkpt>
      <trkpt lat="32.76014" lon="-16.94333">
        <ele>1800.206055</ele>
        <time>2013-05-06T09:28:34Z</time>
      </trkpt>
      <trkpt lat="32.76014" lon="-16.94327">
        <ele>1798.763916</ele>
        <time>2013-05-06T09:28:38Z</time>
      </trkpt>
      <trkpt lat="32.7601" lon="-16.94302">
        <ele>1796.36084</ele>
        <time>2013-05-06T09:28:59Z</time>
      </trkpt>
      <trkpt lat="32.76012" lon="-16.94284">
        <ele>1792.996094</ele>
        <time>2013-05-06T09:29:15Z</time>
      </trkpt>
      <trkpt lat="32.76015" lon="-16.94265">
        <ele>1791.554199</ele>
        <time>2013-05-06T09:29:34Z</time>
      </trkpt>
      <trkpt lat="32.76018" lon="-16.94254">
        <ele>1788.67041</ele>
        <time>2013-05-06T09:29:50Z</time>
      </trkpt>
      <trkpt lat="32.76018" lon="-16.94243">
        <ele>1785.30542</ele>
        <time>2013-05-06T09:30:06Z</time>
      </trkpt>
      <trkpt lat="32.76016" lon="-16.9424">
        <ele>1784.344238</ele>
        <time>2013-05-06T09:30:10Z</time>
      </trkpt>
      <trkpt lat="32.76006" lon="-16.9421">
        <ele>1782.9021</ele>
        <time>2013-05-06T09:30:36Z</time>
      </trkpt>
      <trkpt lat="32.76012" lon="-16.94183">
        <ele>1780.499023</ele>
        <time>2013-05-06T09:30:58Z</time>
      </trkpt>
      <trkpt lat="32.76016" lon="-16.94163">
        <ele>1777.134521</ele>
        <time>2013-05-06T09:31:17Z</time>
      </trkpt>
      <trkpt lat="32.76021" lon="-16.9416">
        <ele>1774.731201</ele>
        <time>2013-05-06T09:31:25Z</time>
      </trkpt>
      <trkpt lat="32.76035" lon="-16.9415">
        <ele>1773.289307</ele>
        <time>2013-05-06T09:31:47Z</time>
      </trkpt>
      <trkpt lat="32.76021" lon="-16.94145">
        <ele>1773.289307</ele>
        <time>2013-05-06T09:32:07Z</time>
      </trkpt>
      <trkpt lat="32.76013" lon="-16.94142">
        <ele>1773.769775</ele>
        <time>2013-05-06T09:32:16Z</time>
      </trkpt>
      <trkpt lat="32.76031" lon="-16.94142">
        <ele>1772.808594</ele>
        <time>2013-05-06T09:32:20Z</time>
      </trkpt>
      <trkpt lat="32.76046" lon="-16.9414">
        <ele>1773.769775</ele>
        <time>2013-05-06T09:32:37Z</time>
      </trkpt>
      <trkpt lat="32.76045" lon="-16.94143">
        <ele>1773.289307</ele>
        <time>2013-05-06T09:32:41Z</time>
      </trkpt>
      <trkpt lat="32.7604" lon="-16.94158">
        <ele>1773.289307</ele>
        <time>2013-05-06T09:33:00Z</time>
      </trkpt>
      <trkpt lat="32.76029" lon="-16.94165">
        <ele>1772.808594</ele>
        <time>2013-05-06T09:33:15Z</time>
      </trkpt>
      <trkpt lat="32.76026" lon="-16.9417">
        <ele>1773.769775</ele>
        <time>2013-05-06T09:33:28Z</time>
      </trkpt>
      <trkpt lat="32.76027" lon="-16.94167">
        <ele>1773.289307</ele>
        <time>2013-05-06T09:33:31Z</time>
      </trkpt>
      <trkpt lat="32.76029" lon="-16.94147">
        <ele>1772.808594</ele>
        <time>2013-05-06T09:33:53Z</time>
      </trkpt>
      <trkpt lat="32.7603" lon="-16.94148">
        <ele>1772.808594</ele>
        <time>2013-05-06T09:34:10Z</time>
      </trkpt>
      <trkpt lat="32.76033" lon="-16.94147">
        <ele>1770.405029</ele>
        <time>2013-05-06T09:34:24Z</time>
      </trkpt>
      <trkpt lat="32.76038" lon="-16.94139">
        <ele>1770.405029</ele>
        <time>2013-05-06T09:34:37Z</time>
      </trkpt>
      <trkpt lat="32.76038" lon="-16.9414">
        <ele>1770.405029</ele>
        <time>2013-05-06T09:34:54Z</time>
      </trkpt>
      <trkpt lat="32.76035" lon="-16.94142">
        <ele>1770.405029</ele>
        <time>2013-05-06T09:34:58Z</time>
      </trkpt>
      <trkpt lat="32.76032" lon="-16.9415">
        <ele>1772.808594</ele>
        <time>2013-05-06T09:35:12Z</time>
      </trkpt>
      <trkpt lat="32.76036" lon="-16.94151">
        <ele>1773.289307</ele>
        <time>2013-05-06T09:35:18Z</time>
      </trkpt>
    </trkseg>
  </trk>
  <trk>
    <name><![CDATA[ACTIVE LOG 039]]></name>
    <trkseg>
      <trkpt lat="32.76071" lon="-16.94159">
        <ele>1774.250488</ele>
        <time>2013-05-06T09:35:53Z</time>
      </trkpt>
      <trkpt lat="32.76071" lon="-16.94159">
        <ele>1770.885742</ele>
        <time>2013-05-06T09:39:42Z</time>
      </trkpt>
      <trkpt lat="32.76071" lon="-16.94159">
        <ele>1772.327881</ele>
        <time>2013-05-06T09:41:21Z</time>
      </trkpt>
      <trkpt lat="32.76071" lon="-16.94159">
        <ele>1773.289307</ele>
        <time>2013-05-06T09:42:36Z</time>
      </trkpt>
      <trkpt lat="32.76071" lon="-16.94159">
        <ele>1771.846924</ele>
        <time>2013-05-06T09:42:38Z</time>
      </trkpt>
    </trkseg>
  </trk>
  <trk>
    <name><![CDATA[ACTIVE LOG 040]]></name>
    <trkseg>
      <trkpt lat="32.76003" lon="-16.94161">
        <ele>1772.808594</ele>
        <time>2013-05-06T09:42:48Z</time>
      </trkpt>
      <trkpt lat="32.76011" lon="-16.94161">
        <ele>1772.327881</ele>
        <time>2013-05-06T09:42:51Z</time>
      </trkpt>
      <trkpt lat="32.76023" lon="-16.94149">
        <ele>1769.443848</ele>
        <time>2013-05-06T09:43:09Z</time>
      </trkpt>
      <trkpt lat="32.76017" lon="-16.94135">
        <ele>1766.559814</ele>
        <time>2013-05-06T09:43:31Z</time>
      </trkpt>
      <trkpt lat="32.76024" lon="-16.94131">
        <ele>1763.675781</ele>
        <time>2013-05-06T09:43:47Z</time>
      </trkpt>
      <trkpt lat="32.76028" lon="-16.94124">
        <ele>1761.753418</ele>
        <time>2013-05-06T09:44:03Z</time>
      </trkpt>
      <trkpt lat="32.76026" lon="-16.94121">
        <ele>1759.830566</ele>
        <time>2013-05-06T09:44:06Z</time>
      </trkpt>
      <trkpt lat="32.76018" lon="-16.94109">
        <ele>1756.466064</ele>
        <time>2013-05-06T09:44:24Z</time>
      </trkpt>
      <trkpt lat="32.76014" lon="-16.941">
        <ele>1755.504639</ele>
        <time>2013-05-06T09:44:38Z</time>
      </trkpt>
      <trkpt lat="32.76014" lon="-16.94095">
        <ele>1754.543213</ele>
        <time>2013-05-06T09:44:54Z</time>
      </trkpt>
      <trkpt lat="32.76015" lon="-16.94092">
        <ele>1753.582031</ele>
        <time>2013-05-06T09:45:10Z</time>
      </trkpt>
      <trkpt lat="32.76019" lon="-16.94084">
        <ele>1751.659424</ele>
        <time>2013-05-06T09:45:32Z</time>
      </trkpt>
      <trkpt lat="32.76025" lon="-16.94073">
        <ele>1749.736816</ele>
        <time>2013-05-06T09:45:49Z</time>
      </trkpt>
      <trkpt lat="32.76028" lon="-16.94065">
        <ele>1746.372314</ele>
        <time>2013-05-06T09:46:00Z</time>
      </trkpt>
      <trkpt lat="32.76033" lon="-16.94058">
        <ele>1743.007568</ele>
        <time>2013-05-06T09:46:13Z</time>
      </trkpt>
      <trkpt lat="32.76041" lon="-16.94047">
        <ele>1739.642822</ele>
        <time>2013-05-06T09:46:30Z</time>
      </trkpt>
      <trkpt lat="32.7605" lon="-16.94035">
        <ele>1736.27832</ele>
        <time>2013-05-06T09:46:47Z</time>
      </trkpt>
      <trkpt lat="32.76051" lon="-16.94033">
        <ele>1736.27832</ele>
        <time>2013-05-06T09:46:49Z</time>
      </trkpt>
      <trkpt lat="32.7606" lon="-16.94006">
        <ele>1734.836426</ele>
        <time>2013-05-06T09:47:10Z</time>
      </trkpt>
      <trkpt lat="32.76064" lon="-16.93977">
        <ele>1736.27832</ele>
        <time>2013-05-06T09:47:32Z</time>
      </trkpt>
      <trkpt lat="32.76061" lon="-16.93968">
        <ele>1734.836426</ele>
        <time>2013-05-06T09:47:51Z</time>
      </trkpt>
      <trkpt lat="32.76057" lon="-16.93956">
        <ele>1731.47168</ele>
        <time>2013-05-06T09:48:07Z</time>
      </trkpt>
      <trkpt lat="32.76055" lon="-16.93944">
        <ele>1728.107178</ele>
        <time>2013-05-06T09:48:25Z</time>
      </trkpt>
      <trkpt lat="32.76052" lon="-16.93932">
        <ele>1726.18457</ele>
        <time>2013-05-06T09:48:41Z</time>
      </trkpt>
      <trkpt lat="32.76052" lon="-16.93928">
        <ele>1727.145996</ele>
        <time>2013-05-06T09:48:44Z</time>
      </trkpt>
      <trkpt lat="32.76053" lon="-16.93909">
        <ele>1724.742676</ele>
        <time>2013-05-06T09:49:04Z</time>
      </trkpt>
      <trkpt lat="32.76052" lon="-16.93884">
        <ele>1723.300537</ele>
        <time>2013-05-06T09:49:23Z</time>
      </trkpt>
      <trkpt lat="32.76049" lon="-16.93859">
        <ele>1721.377686</ele>
        <time>2013-05-06T09:49:45Z</time>
      </trkpt>
      <trkpt lat="32.76043" lon="-16.93837">
        <ele>1719.935791</ele>
        <time>2013-05-06T09:50:06Z</time>
      </trkpt>
      <trkpt lat="32.76045" lon="-16.93811">
        <ele>1720.416504</ele>
        <time>2013-05-06T09:50:29Z</time>
      </trkpt>
      <trkpt lat="32.76056" lon="-16.93793">
        <ele>1721.858398</ele>
        <time>2013-05-06T09:50:47Z</time>
      </trkpt>
      <trkpt lat="32.76072" lon="-16.93766">
        <ele>1721.377686</ele>
        <time>2013-05-06T09:51:10Z</time>
      </trkpt>
      <trkpt lat="32.76087" lon="-16.93742">
        <ele>1720.897217</ele>
        <time>2013-05-06T09:51:31Z</time>
      </trkpt>
      <trkpt lat="32.76095" lon="-16.93721">
        <ele>1718.974609</ele>
        <time>2013-05-06T09:51:51Z</time>
      </trkpt>
      <trkpt lat="32.76096" lon="-16.93715">
        <ele>1715.610107</ele>
        <time>2013-05-06T09:51:57Z</time>
      </trkpt>
      <trkpt lat="32.76098" lon="-16.93708">
        <ele>1714.167969</ele>
        <time>2013-05-06T09:52:04Z</time>
      </trkpt>
      <trkpt lat="32.76104" lon="-16.93688">
        <ele>1711.28418</ele>
        <time>2013-05-06T09:52:24Z</time>
      </trkpt>
      <trkpt lat="32.76105" lon="-16.93687">
        <ele>1711.28418</ele>
        <time>2013-05-06T09:52:26Z</time>
      </trkpt>
      <trkpt lat="32.76104" lon="-16.93662">
        <ele>1711.764893</ele>
        <time>2013-05-06T09:52:46Z</time>
      </trkpt>
      <trkpt lat="32.76108" lon="-16.93641">
        <ele>1709.361572</ele>
        <time>2013-05-06T09:53:06Z</time>
      </trkpt>
      <trkpt lat="32.76108" lon="-16.93633">
        <ele>1709.361572</ele>
        <time>2013-05-06T09:53:26Z</time>
      </trkpt>
      <trkpt lat="32.76106" lon="-16.93615">
        <ele>1709.842041</ele>
        <time>2013-05-06T09:53:48Z</time>
      </trkpt>
      <trkpt lat="32.7611" lon="-16.93602">
        <ele>1710.322754</ele>
        <time>2013-05-06T09:54:05Z</time>
      </trkpt>
      <trkpt lat="32.7612" lon="-16.93582">
        <ele>1708.400146</ele>
        <time>2013-05-06T09:54:25Z</time>
      </trkpt>
      <trkpt lat="32.76124" lon="-16.93555">
        <ele>1707.438721</ele>
        <time>2013-05-06T09:54:47Z</time>
      </trkpt>
      <trkpt lat="32.76124" lon="-16.93539">
        <ele>1710.322754</ele>
        <time>2013-05-06T09:55:06Z</time>
      </trkpt>
      <trkpt lat="32.76125" lon="-16.93531">
        <ele>1714.167969</ele>
        <time>2013-05-06T09:55:15Z</time>
      </trkpt>
      <trkpt lat="32.76124" lon="-16.93513">
        <ele>1715.610107</ele>
        <time>2013-05-06T09:55:34Z</time>
      </trkpt>
      <trkpt lat="32.76129" lon="-16.93492">
        <ele>1718.013184</ele>
        <time>2013-05-06T09:55:52Z</time>
      </trkpt>
      <trkpt lat="32.76134" lon="-16.93475">
        <ele>1719.935791</ele>
        <time>2013-05-06T09:56:07Z</time>
      </trkpt>
      <trkpt lat="32.76151" lon="-16.93454">
        <ele>1721.858398</ele>
        <time>2013-05-06T09:56:31Z</time>
      </trkpt>
      <trkpt lat="32.76163" lon="-16.93442">
        <ele>1724.742676</ele>
        <time>2013-05-06T09:56:48Z</time>
      </trkpt>
      <trkpt lat="32.76183" lon="-16.93424">
        <ele>1725.703857</ele>
        <time>2013-05-06T09:57:09Z</time>
      </trkpt>
      <trkpt lat="32.76207" lon="-16.93407">
        <ele>1727.145996</ele>
        <time>2013-05-06T09:57:31Z</time>
      </trkpt>
      <trkpt lat="32.76227" lon="-16.9339">
        <ele>1727.626465</ele>
        <time>2013-05-06T09:57:51Z</time>
      </trkpt>
      <trkpt lat="32.7625" lon="-16.93371">
        <ele>1725.703857</ele>
        <time>2013-05-06T09:58:14Z</time>
      </trkpt>
      <trkpt lat="32.76267" lon="-16.93359">
        <ele>1722.339111</ele>
        <time>2013-05-06T09:58:32Z</time>
      </trkpt>
      <trkpt lat="32.7628" lon="-16.93348">
        <ele>1724.261963</ele>
        <time>2013-05-06T09:58:44Z</time>
      </trkpt>
      <trkpt lat="32.763" lon="-16.93333">
        <ele>1722.339111</ele>
        <time>2013-05-06T09:59:02Z</time>
      </trkpt>
      <trkpt lat="32.76311" lon="-16.93311">
        <ele>1721.377686</ele>
        <time>2013-05-06T09:59:21Z</time>
      </trkpt>
      <trkpt lat="32.76312" lon="-16.933">
        <ele>1718.013184</ele>
        <time>2013-05-06T09:59:31Z</time>
      </trkpt>
      <trkpt lat="32.76314" lon="-16.93278">
        <ele>1715.129395</ele>
        <time>2013-05-06T09:59:50Z</time>
      </trkpt>
      <trkpt lat="32.76318" lon="-16.93266">
        <ele>1711.764893</ele>
        <time>2013-05-06T10:00:02Z</time>
      </trkpt>
      <trkpt lat="32.76322" lon="-16.93249">
        <ele>1708.400146</ele>
        <time>2013-05-06T10:00:18Z</time>
      </trkpt>
      <trkpt lat="32.7633" lon="-16.93226">
        <ele>1706.958008</ele>
        <time>2013-05-06T10:00:37Z</time>
      </trkpt>
      <trkpt lat="32.76338" lon="-16.93212">
        <ele>1705.0354</ele>
        <time>2013-05-06T10:00:50Z</time>
      </trkpt>
      <trkpt lat="32.76345" lon="-16.93189">
        <ele>1701.670898</ele>
        <time>2013-05-06T10:01:08Z</time>
      </trkpt>
      <trkpt lat="32.76362" lon="-16.93166">
        <ele>1701.670898</ele>
        <time>2013-05-06T10:01:27Z</time>
      </trkpt>
      <trkpt lat="32.76374" lon="-16.93155">
        <ele>1701.190186</ele>
        <time>2013-05-06T10:01:39Z</time>
      </trkpt>
      <trkpt lat="32.76382" lon="-16.93146">
        <ele>1702.151367</ele>
        <time>2013-05-06T10:01:59Z</time>
      </trkpt>
      <trkpt lat="32.76387" lon="-16.93118">
        <ele>1698.786865</ele>
        <time>2013-05-06T10:02:19Z</time>
      </trkpt>
      <trkpt lat="32.76381" lon="-16.93085">
        <ele>1698.306152</ele>
        <time>2013-05-06T10:02:41Z</time>
      </trkpt>
      <trkpt lat="32.76381" lon="-16.93063">
        <ele>1697.344971</ele>
        <time>2013-05-06T10:02:57Z</time>
      </trkpt>
      <trkpt lat="32.76383" lon="-16.93035">
        <ele>1697.825684</ele>
        <time>2013-05-06T10:03:18Z</time>
      </trkpt>
      <trkpt lat="32.7638" lon="-16.93028">
        <ele>1699.267578</ele>
        <time>2013-05-06T10:03:26Z</time>
      </trkpt>
      <trkpt lat="32.76364" lon="-16.93008">
        <ele>1699.267578</ele>
        <time>2013-05-06T10:03:49Z</time>
      </trkpt>
      <trkpt lat="32.76356" lon="-16.92992">
        <ele>1699.267578</ele>
        <time>2013-05-06T10:04:05Z</time>
      </trkpt>
      <trkpt lat="32.76348" lon="-16.92962">
        <ele>1697.344971</ele>
        <time>2013-05-06T10:04:28Z</time>
      </trkpt>
      <trkpt lat="32.76345" lon="-16.92952">
        <ele>1694.94165</ele>
        <time>2013-05-06T10:04:46Z</time>
      </trkpt>
      <trkpt lat="32.76341" lon="-16.92936">
        <ele>1692.057861</ele>
        <time>2013-05-06T10:04:59Z</time>
      </trkpt>
      <trkpt lat="32.76333" lon="-16.92905">
        <ele>1691.576904</ele>
        <time>2013-05-06T10:05:19Z</time>
      </trkpt>
      <trkpt lat="32.76324" lon="-16.92869">
        <ele>1693.980469</ele>
        <time>2013-05-06T10:05:43Z</time>
      </trkpt>
      <trkpt lat="32.76321" lon="-16.92842">
        <ele>1695.422363</ele>
        <time>2013-05-06T10:06:02Z</time>
      </trkpt>
      <trkpt lat="32.76323" lon="-16.92813">
        <ele>1692.538574</ele>
        <time>2013-05-06T10:06:21Z</time>
      </trkpt>
      <trkpt lat="32.76323" lon="-16.92811">
        <ele>1692.057861</ele>
        <time>2013-05-06T10:06:41Z</time>
      </trkpt>
      <trkpt lat="32.76324" lon="-16.92809">
        <ele>1692.057861</ele>
        <time>2013-05-06T10:07:09Z</time>
      </trkpt>
      <trkpt lat="32.76326" lon="-16.92803">
        <ele>1690.615479</ele>
        <time>2013-05-06T10:07:30Z</time>
      </trkpt>
      <trkpt lat="32.76332" lon="-16.92789">
        <ele>1689.173584</ele>
        <time>2013-05-06T10:07:46Z</time>
      </trkpt>
      <trkpt lat="32.76335" lon="-16.92782">
        <ele>1689.173584</ele>
        <time>2013-05-06T10:08:20Z</time>
      </trkpt>
      <trkpt lat="32.76342" lon="-16.92767">
        <ele>1689.654297</ele>
        <time>2013-05-06T10:08:39Z</time>
      </trkpt>
      <trkpt lat="32.76346" lon="-16.92755">
        <ele>1686.289795</ele>
        <time>2013-05-06T10:08:54Z</time>
      </trkpt>
      <trkpt lat="32.76351" lon="-16.92728">
        <ele>1684.8479</ele>
        <time>2013-05-06T10:09:14Z</time>
      </trkpt>
      <trkpt lat="32.76358" lon="-16.92698">
        <ele>1683.405762</ele>
        <time>2013-05-06T10:09:37Z</time>
      </trkpt>
      <trkpt lat="32.76358" lon="-16.92698">
        <ele>1683.405762</ele>
        <time>2013-05-06T10:10:02Z</time>
      </trkpt>
      <trkpt lat="32.76362" lon="-16.92682">
        <ele>1682.925049</ele>
        <time>2013-05-06T10:10:21Z</time>
      </trkpt>
      <trkpt lat="32.76376" lon="-16.9265">
        <ele>1681.002686</ele>
        <time>2013-05-06T10:10:45Z</time>
      </trkpt>
      <trkpt lat="32.76399" lon="-16.92624">
        <ele>1681.483154</ele>
        <time>2013-05-06T10:11:10Z</time>
      </trkpt>
      <trkpt lat="32.76405" lon="-16.92613">
        <ele>1678.599365</ele>
        <time>2013-05-06T10:11:19Z</time>
      </trkpt>
      <trkpt lat="32.76406" lon="-16.92612">
        <ele>1678.599365</ele>
        <time>2013-05-06T10:11:20Z</time>
      </trkpt>
      <trkpt lat="32.7641" lon="-16.92605">
        <ele>1680.521973</ele>
        <time>2013-05-06T10:11:38Z</time>
      </trkpt>
      <trkpt lat="32.76413" lon="-16.92601">
        <ele>1679.079834</ele>
        <time>2013-05-06T10:11:54Z</time>
      </trkpt>
      <trkpt lat="32.76422" lon="-16.92583">
        <ele>1675.715088</ele>
        <time>2013-05-06T10:12:11Z</time>
      </trkpt>
      <trkpt lat="32.76429" lon="-16.92568">
        <ele>1672.831299</ele>
        <time>2013-05-06T10:12:27Z</time>
      </trkpt>
      <trkpt lat="32.7644" lon="-16.92545">
        <ele>1669.466797</ele>
        <time>2013-05-06T10:12:47Z</time>
      </trkpt>
      <trkpt lat="32.76445" lon="-16.92534">
        <ele>1666.102051</ele>
        <time>2013-05-06T10:12:58Z</time>
      </trkpt>
      <trkpt lat="32.76451" lon="-16.92521">
        <ele>1663.218262</ele>
        <time>2013-05-06T10:13:12Z</time>
      </trkpt>
      <trkpt lat="32.76452" lon="-16.9252">
        <ele>1662.737549</ele>
        <time>2013-05-06T10:13:13Z</time>
      </trkpt>
      <trkpt lat="32.76455" lon="-16.92513">
        <ele>1660.814941</ele>
        <time>2013-05-06T10:13:21Z</time>
      </trkpt>
      <trkpt lat="32.7646" lon="-16.92512">
        <ele>1659.372803</ele>
        <time>2013-05-06T10:13:35Z</time>
      </trkpt>
      <trkpt lat="32.76465" lon="-16.92517">
        <ele>1657.450195</ele>
        <time>2013-05-06T10:13:46Z</time>
      </trkpt>
      <trkpt lat="32.76472" lon="-16.92515">
        <ele>1655.046875</ele>
        <time>2013-05-06T10:14:03Z</time>
      </trkpt>
      <trkpt lat="32.7647" lon="-16.92497">
        <ele>1651.682373</ele>
        <time>2013-05-06T10:14:24Z</time>
      </trkpt>
      <trkpt lat="32.76468" lon="-16.92489">
        <ele>1650.240479</ele>
        <time>2013-05-06T10:14:33Z</time>
      </trkpt>
      <trkpt lat="32.7646" lon="-16.92464">
        <ele>1646.395264</ele>
        <time>2013-05-06T10:14:55Z</time>
      </trkpt>
      <trkpt lat="32.76455" lon="-16.92452">
        <ele>1642.549805</ele>
        <time>2013-05-06T10:15:09Z</time>
      </trkpt>
      <trkpt lat="32.76445" lon="-16.92441">
        <ele>1639.665771</ele>
        <time>2013-05-06T10:15:25Z</time>
      </trkpt>
      <trkpt lat="32.76437" lon="-16.92433">
        <ele>1636.30127</ele>
        <time>2013-05-06T10:15:38Z</time>
      </trkpt>
      <trkpt lat="32.76423" lon="-16.92417">
        <ele>1633.417236</ele>
        <time>2013-05-06T10:15:59Z</time>
      </trkpt>
      <trkpt lat="32.76409" lon="-16.92394">
        <ele>1631.01416</ele>
        <time>2013-05-06T10:16:18Z</time>
      </trkpt>
      <trkpt lat="32.764" lon="-16.92367">
        <ele>1631.01416</ele>
        <time>2013-05-06T10:16:38Z</time>
      </trkpt>
      <trkpt lat="32.76395" lon="-16.92336">
        <ele>1629.572021</ele>
        <time>2013-05-06T10:17:00Z</time>
      </trkpt>
      <trkpt lat="32.76393" lon="-16.92321">
        <ele>1629.091309</ele>
        <time>2013-05-06T10:17:18Z</time>
      </trkpt>
      <trkpt lat="32.76393" lon="-16.92322">
        <ele>1629.572021</ele>
        <time>2013-05-06T10:18:14Z</time>
      </trkpt>
      <trkpt lat="32.76393" lon="-16.9232">
        <ele>1628.61084</ele>
        <time>2013-05-06T10:18:38Z</time>
      </trkpt>
      <trkpt lat="32.76397" lon="-16.92317">
        <ele>1628.61084</ele>
        <time>2013-05-06T10:18:42Z</time>
      </trkpt>
      <trkpt lat="32.76397" lon="-16.9229">
        <ele>1625.24585</ele>
        <time>2013-05-06T10:19:03Z</time>
      </trkpt>
      <trkpt lat="32.76398" lon="-16.92268">
        <ele>1622.842773</ele>
        <time>2013-05-06T10:19:20Z</time>
      </trkpt>
      <trkpt lat="32.76401" lon="-16.92257">
        <ele>1620.920166</ele>
        <time>2013-05-06T10:19:30Z</time>
      </trkpt>
      <trkpt lat="32.76411" lon="-16.92236">
        <ele>1618.036133</ele>
        <time>2013-05-06T10:19:50Z</time>
      </trkpt>
      <trkpt lat="32.76415" lon="-16.92231">
        <ele>1616.113525</ele>
        <time>2013-05-06T10:19:55Z</time>
      </trkpt>
      <trkpt lat="32.76422" lon="-16.92219">
        <ele>1612.749023</ele>
        <time>2013-05-06T10:20:08Z</time>
      </trkpt>
      <trkpt lat="32.76423" lon="-16.92217">
        <ele>1612.268311</ele>
        <time>2013-05-06T10:20:10Z</time>
      </trkpt>
      <trkpt lat="32.76425" lon="-16.922">
        <ele>1609.384277</ele>
        <time>2013-05-06T10:20:25Z</time>
      </trkpt>
      <trkpt lat="32.76429" lon="-16.9218">
        <ele>1606.019531</ele>
        <time>2013-05-06T10:20:42Z</time>
      </trkpt>
      <trkpt lat="32.76434" lon="-16.92171">
        <ele>1603.616455</ele>
        <time>2013-05-06T10:20:52Z</time>
      </trkpt>
      <trkpt lat="32.76445" lon="-16.92158">
        <ele>1600.732422</ele>
        <time>2013-05-06T10:21:07Z</time>
      </trkpt>
      <trkpt lat="32.76468" lon="-16.92129">
        <ele>1597.36792</ele>
        <time>2013-05-06T10:21:34Z</time>
      </trkpt>
      <trkpt lat="32.76484" lon="-16.92112">
        <ele>1594.483643</ele>
        <time>2013-05-06T10:21:55Z</time>
      </trkpt>
      <trkpt lat="32.76485" lon="-16.92089">
        <ele>1594.003174</ele>
        <time>2013-05-06T10:22:12Z</time>
      </trkpt>
      <trkpt lat="32.76482" lon="-16.92077">
        <ele>1594.483643</ele>
        <time>2013-05-06T10:22:21Z</time>
      </trkpt>
      <trkpt lat="32.7648" lon="-16.92071">
        <ele>1594.964355</ele>
        <time>2013-05-06T10:22:35Z</time>
      </trkpt>
      <trkpt lat="32.76479" lon="-16.92072">
        <ele>1594.483643</ele>
        <time>2013-05-06T10:22:46Z</time>
      </trkpt>
      <trkpt lat="32.76481" lon="-16.92072">
        <ele>1594.003174</ele>
        <time>2013-05-06T10:23:19Z</time>
      </trkpt>
      <trkpt lat="32.7648" lon="-16.92071">
        <ele>1594.483643</ele>
        <time>2013-05-06T10:23:37Z</time>
      </trkpt>
      <trkpt lat="32.76481" lon="-16.9207">
        <ele>1594.483643</ele>
        <time>2013-05-06T10:23:43Z</time>
      </trkpt>
      <trkpt lat="32.76494" lon="-16.92065">
        <ele>1595.925781</ele>
        <time>2013-05-06T10:23:57Z</time>
      </trkpt>
      <trkpt lat="32.76499" lon="-16.92036">
        <ele>1595.445068</ele>
        <time>2013-05-06T10:24:17Z</time>
      </trkpt>
      <trkpt lat="32.76504" lon="-16.92005">
        <ele>1595.925781</ele>
        <time>2013-05-06T10:24:37Z</time>
      </trkpt>
      <trkpt lat="32.76509" lon="-16.91969">
        <ele>1595.925781</ele>
        <time>2013-05-06T10:25:01Z</time>
      </trkpt>
      <trkpt lat="32.76516" lon="-16.91932">
        <ele>1593.522461</ele>
        <time>2013-05-06T10:25:26Z</time>
      </trkpt>
      <trkpt lat="32.76519" lon="-16.91919">
        <ele>1594.003174</ele>
        <time>2013-05-06T10:25:43Z</time>
      </trkpt>
      <trkpt lat="32.76524" lon="-16.9191">
        <ele>1590.638428</ele>
        <time>2013-05-06T10:25:55Z</time>
      </trkpt>
      <trkpt lat="32.76524" lon="-16.91913">
        <ele>1591.599854</ele>
        <time>2013-05-06T10:26:26Z</time>
      </trkpt>
      <trkpt lat="32.76523" lon="-16.91913">
        <ele>1591.599854</ele>
        <time>2013-05-06T10:26:41Z</time>
      </trkpt>
      <trkpt lat="32.76522" lon="-16.91914">
        <ele>1592.561279</ele>
        <time>2013-05-06T10:27:15Z</time>
      </trkpt>
      <trkpt lat="32.76517" lon="-16.91921">
        <ele>1594.964355</ele>
        <time>2013-05-06T10:27:30Z</time>
      </trkpt>
      <trkpt lat="32.76516" lon="-16.91925">
        <ele>1594.964355</ele>
        <time>2013-05-06T10:27:40Z</time>
      </trkpt>
      <trkpt lat="32.76512" lon="-16.91952">
        <ele>1595.445068</ele>
        <time>2013-05-06T10:28:00Z</time>
      </trkpt>
      <trkpt lat="32.76508" lon="-16.91985">
        <ele>1596.406738</ele>
        <time>2013-05-06T10:28:23Z</time>
      </trkpt>
      <trkpt lat="32.76502" lon="-16.92025">
        <ele>1595.445068</ele>
        <time>2013-05-06T10:28:50Z</time>
      </trkpt>
      <trkpt lat="32.76498" lon="-16.9205">
        <ele>1595.925781</ele>
        <time>2013-05-06T10:29:08Z</time>
      </trkpt>
      <trkpt lat="32.76495" lon="-16.92066">
        <ele>1596.406738</ele>
        <time>2013-05-06T10:29:21Z</time>
      </trkpt>
      <trkpt lat="32.76489" lon="-16.92069">
        <ele>1595.925781</ele>
        <time>2013-05-06T10:29:27Z</time>
      </trkpt>
      <trkpt lat="32.76481" lon="-16.92071">
        <ele>1596.406738</ele>
        <time>2013-05-06T10:29:46Z</time>
      </trkpt>
      <trkpt lat="32.76481" lon="-16.92071">
        <ele>1594.964355</ele>
        <time>2013-05-06T10:29:48Z</time>
      </trkpt>
      <trkpt lat="32.76481" lon="-16.92071">
        <ele>1595.445068</ele>
        <time>2013-05-06T10:29:51Z</time>
      </trkpt>
    </trkseg>
  </trk>
</gpx>